Time;durP1;ratioP1;P1;durP2;ratioP2;P2;SDS_P1;SDS_P2;PMS_P1;PMS_P2;Temp;Humidity;BMP_temperature;BMP_pressure;BME280_temperature;BME280_humidity;BME280_pressure;Samples;Min_cycle;Max_cycle;Signal;HPM_P1;HPM_P2
2022/03/19 00:00:33;;;;;;;36.97;34.15;;;;;;;;;;5014267;28;20589;-63
2022/03/19 00:02:59;;;;;;;34.03;31.63;;;;;;;;;;5014184;28;20180;-63
2022/03/19 00:05:25;;;;;;;19.87;18.97;;;;;;;;;;5014315;28;20442;-63
2022/03/19 00:07:51;;;;;;;25.00;23.60;;;;;;;;;;5014335;28;20413;-63
2022/03/19 00:10:19;;;;;;;41.58;38.53;;;;;;;;;;5013791;28;21150;-63
2022/03/19 00:12:45;;;;;;;37.90;34.83;;;;;;;;;;5014083;28;20639;-63
2022/03/19 00:15:11;;;;;;;39.13;36.10;;;;;;;;;;5014172;28;20179;-63
2022/03/19 00:17:38;;;;;;;37.10;34.10;;;;;;;;;;5014093;28;20236;-63
2022/03/19 00:20:04;;;;;;;40.05;36.80;;;;;;;;;;5014081;28;20263;-63
2022/03/19 00:22:31;;;;;;;37.58;34.60;;;;;;;;;;5006972;28;20201;-63
2022/03/19 00:24:58;;;;;;;33.55;31.20;;;;;;;;;;4994283;28;20175;-63
2022/03/19 00:27:25;;;;;;;14.85;14.30;;;;;;;;;;4994345;28;20185;-63
2022/03/19 00:29:51;;;;;;;15.38;14.77;;;;;;;;;;4994397;28;20216;-63
2022/03/19 00:32:17;;;;;;;24.08;22.77;;;;;;;;;;4993932;28;20218;-63
2022/03/19 00:34:43;;;;;;;22.77;21.55;;;;;;;;;;4994224;28;20631;-63
2022/03/19 00:37:09;;;;;;;10.50;10.20;;;;;;;;;;4993155;28;20175;-63
2022/03/19 00:39:35;;;;;;;9.43;9.13;;;;;;;;;;4994143;28;20407;-63
2022/03/19 00:42:01;;;;;;;13.03;12.63;;;;;;;;;;4993820;28;20515;-63
2022/03/19 00:44:27;;;;;;;25.40;24.00;;;;;;;;;;4994030;28;20474;-63
2022/03/19 00:46:53;;;;;;;21.17;20.13;;;;;;;;;;4993943;28;20186;-63
2022/03/19 00:49:19;;;;;;;19.87;18.93;;;;;;;;;;4993805;28;20408;-63
2022/03/19 00:51:45;;;;;;;23.90;22.50;;;;;;;;;;4993413;28;20784;-63
2022/03/19 00:54:12;;;;;;;21.27;20.20;;;;;;;;;;4993963;28;20769;-63
2022/03/19 00:56:39;;;;;;;21.70;20.55;;;;;;;;;;4993801;28;20184;-63
2022/03/19 00:59:05;;;;;;;23.17;21.92;;;;;;;;;;4976261;28;20238;-63
2022/03/19 01:01:31;;;;;;;14.90;14.30;;;;;;;;;;4993362;28;20189;-63
2022/03/19 01:03:57;;;;;;;16.60;15.95;;;;;;;;;;4993582;28;20511;-63
2022/03/19 01:06:23;;;;;;;14.18;13.68;;;;;;;;;;4993441;28;20177;-62
2022/03/19 01:08:49;;;;;;;14.82;14.27;;;;;;;;;;4993625;28;20175;-63
2022/03/19 01:11:16;;;;;;;14.73;14.13;;;;;;;;;;4993108;28;20667;-63
2022/03/19 01:13:41;;;;;;;19.42;18.52;;;;;;;;;;4993376;28;20413;-63
2022/03/19 01:16:07;;;;;;;21.33;20.27;;;;;;;;;;4993432;28;20176;-63
2022/03/19 01:18:33;;;;;;;18.63;17.73;;;;;;;;;;4993291;28;20485;-62
2022/03/19 01:20:59;;;;;;;25.42;23.90;;;;;;;;;;4992967;28;20338;-62
2022/03/19 01:23:25;;;;;;;30.40;28.30;;;;;;;;;;4993223;28;20645;-62
2022/03/19 01:25:51;;;;;;;30.40;28.27;;;;;;;;;;4993396;28;21235;-63
2022/03/19 01:28:17;;;;;;;25.73;24.13;;;;;;;;;;4993237;28;20443;-63
2022/03/19 01:30:43;;;;;;;26.97;25.17;;;;;;;;;;4992586;28;20478;-63
2022/03/19 01:33:09;;;;;;;69.50;65.23;;;;;;;;;;5017212;23;20402;-60
2022/03/19 01:35:35;;;;;;;35.97;33.67;;;;;;;;;;5009337;28;20459;-62
2022/03/19 01:38:04;;;;;;;8.80;8.50;;;;;;;;;;5012150;28;20410;-63
2022/03/19 01:40:30;;;;;;;12.07;11.68;;;;;;;;;;5011988;28;20466;-62
2022/03/19 01:42:57;;;;;;;14.93;14.33;;;;;;;;;;5012138;28;20178;-63
2022/03/19 01:45:24;;;;;;;18.48;17.65;;;;;;;;;;5012307;28;20419;-62
2022/03/19 01:47:51;;;;;;;19.95;18.95;;;;;;;;;;5011806;28;20179;-63
2022/03/19 01:50:18;;;;;;;26.98;25.50;;;;;;;;;;5011755;28;20258;-61
2022/03/19 01:52:45;;;;;;;35.63;32.92;;;;;;;;;;5011955;28;20211;-63
2022/03/19 01:55:11;;;;;;;42.47;38.58;;;;;;;;;;5012011;28;20548;-62
2022/03/19 01:57:41;;;;;;;35.72;33.00;;;;;;;;;;5011973;28;20176;-62
2022/03/19 02:00:08;;;;;;;45.35;41.20;;;;;;;;;;5011698;28;20171;-62
2022/03/19 02:02:35;;;;;;;43.10;39.30;;;;;;;;;;5011784;28;20196;-63
2022/03/19 02:05:03;;;;;;;29.75;27.75;;;;;;;;;;5011784;28;20275;-60
2022/03/19 02:07:29;;;;;;;25.20;23.75;;;;;;;;;;5011681;28;20172;-62
2022/03/19 02:09:58;;;;;;;22.98;21.70;;;;;;;;;;5011735;28;20281;-62
2022/03/19 02:12:24;;;;;;;23.30;21.90;;;;;;;;;;5011779;28;20222;-61
2022/03/19 02:14:50;;;;;;;2.47;2.38;;;;;;;;;;5011728;28;20525;-62
2022/03/19 02:17:16;;;;;;;3.17;3.08;;;;;;;;;;5011894;28;20279;-62
2022/03/19 02:19:49;;;;;;;3.20;3.10;;;;;;;;;;5011685;28;20218;-62
2022/03/19 02:22:16;;;;;;;4.05;3.90;;;;;;;;;;5011578;28;20184;-62
2022/03/19 02:27:27;;;;;;;6.85;6.65;;;;;;;;;;5012037;28;20246;-61
2022/03/19 02:29:53;;;;;;;7.40;7.13;;;;;;;;;;5011362;28;20639;-61
2022/03/19 02:32:19;;;;;;;11.00;10.60;;;;;;;;;;5011401;28;20282;-61
2022/03/19 02:34:45;;;;;;;5.78;5.57;;;;;;;;;;5011222;28;20472;-61
2022/03/19 02:37:11;;;;;;;9.20;8.90;;;;;;;;;;5011289;28;20210;-61
2022/03/19 02:39:36;;;;;;;6.00;5.80;;;;;;;;;;5011310;28;20500;-61
2022/03/19 02:42:04;;;;;;;9.03;8.73;;;;;;;;;;5010939;28;20772;-62
2022/03/19 02:44:30;;;;;;;14.60;13.93;;;;;;;;;;5010746;28;20437;-62
2022/03/19 02:46:57;;;;;;;12.07;11.68;;;;;;;;;;5011242;28;20178;-62
2022/03/19 02:49:24;;;;;;;12.48;12.02;;;;;;;;;;5011208;28;20213;-62
2022/03/19 02:51:51;;;;;;;10.73;10.38;;;;;;;;;;5010944;28;20234;-62
2022/03/19 02:54:19;;;;;;;9.35;9.05;;;;;;;;;;5011104;28;20188;-62
2022/03/19 02:56:46;;;;;;;7.78;7.47;;;;;;;;;;5011058;28;20176;-59
2022/03/19 02:59:13;;;;;;;12.32;11.90;;;;;;;;;;5010413;28;20198;-61
2022/03/19 03:01:42;;;;;;;12.43;11.95;;;;;;;;;;5011012;28;20749;-63
2022/03/19 03:04:08;;;;;;;8.43;8.13;;;;;;;;;;5011104;28;20586;-64
2022/03/19 03:06:35;;;;;;;8.77;8.47;;;;;;;;;;5009737;28;20252;-60
2022/03/19 03:09:01;;;;;;;14.60;14.00;;;;;;;;;;5011168;28;20411;-60
2022/03/19 03:11:27;;;;;;;10.87;10.47;;;;;;;;;;5010632;28;20212;-61
2022/03/19 03:13:53;;;;;;;11.00;10.57;;;;;;;;;;5010885;28;20452;-61
2022/03/19 03:16:19;;;;;;;14.83;14.23;;;;;;;;;;5010886;28;20938;-60
2022/03/19 03:18:45;;;;;;;12.38;11.98;;;;;;;;;;5011230;28;20413;-60
2022/03/19 03:21:11;;;;;;;18.15;17.30;;;;;;;;;;5010818;28;20650;-62
2022/03/19 03:23:37;;;;;;;13.97;13.40;;;;;;;;;;5010734;28;20190;-62
2022/03/19 03:26:03;;;;;;;21.23;20.10;;;;;;;;;;5010846;28;20918;-62
2022/03/19 03:28:29;;;;;;;22.07;20.87;;;;;;;;;;5010851;28;20175;-61
2022/03/19 03:30:55;;;;;;;22.40;21.17;;;;;;;;;;5010507;28;20456;-59
2022/03/19 03:33:22;;;;;;;22.98;21.67;;;;;;;;;;5010611;28;20195;-60
2022/03/19 03:35:48;;;;;;;21.88;20.65;;;;;;;;;;5010825;28;20597;-61
2022/03/19 03:38:14;;;;;;;25.63;24.20;;;;;;;;;;5010842;28;20199;-61
2022/03/19 03:40:41;;;;;;;28.02;26.20;;;;;;;;;;5010382;28;20414;-62
2022/03/19 03:43:08;;;;;;;23.25;21.95;;;;;;;;;;5010916;28;20189;-62
2022/03/19 03:45:34;;;;;;;19.15;18.25;;;;;;;;;;5010704;28;20170;-63
2022/03/19 03:48:00;;;;;;;22.52;21.27;;;;;;;;;;5010638;28;20180;-61
2022/03/19 03:50:26;;;;;;;30.00;28.03;;;;;;;;;;5010342;28;20198;-60
2022/03/19 03:52:52;;;;;;;32.67;30.33;;;;;;;;;;5010536;28;20919;-62
2022/03/19 03:55:18;;;;;;;33.20;30.85;;;;;;;;;;5010573;28;20265;-61
2022/03/19 03:57:44;;;;;;;21.83;20.63;;;;;;;;;;5010810;28;20223;-62
2022/03/19 04:00:10;;;;;;;21.70;20.58;;;;;;;;;;5010279;28;20722;-60
2022/03/19 04:02:39;;;;;;;22.98;21.70;;;;;;;;;;5010590;28;20271;-61
2022/03/19 04:05:06;;;;;;;34.40;31.73;;;;;;;;;;5010437;28;20597;-62
2022/03/19 04:07:32;;;;;;;35.22;32.42;;;;;;;;;;5010384;28;20183;-61
2022/03/19 04:09:58;;;;;;;29.67;27.60;;;;;;;;;;5010850;28;20203;-62
2022/03/19 04:12:24;;;;;;;30.70;28.60;;;;;;;;;;5013753;28;20171;-60
2022/03/19 04:14:52;;;;;;;30.48;28.38;;;;;;;;;;5013912;28;20209;-62
2022/03/19 04:17:18;;;;;;;33.75;31.23;;;;;;;;;;5014018;28;20213;-61
2022/03/19 04:19:44;;;;;;;33.65;31.15;;;;;;;;;;5013794;28;20183;-60
2022/03/19 04:22:10;;;;;;;24.23;22.73;;;;;;;;;;5013677;28;20515;-61
2022/03/19 04:24:36;;;;;;;28.35;26.55;;;;;;;;;;5013615;28;20191;-60
2022/03/19 04:27:02;;;;;;;27.92;26.15;;;;;;;;;;5013915;28;20258;-61
2022/03/19 04:29:28;;;;;;;20.70;19.60;;;;;;;;;;5013839;28;20254;-60
2022/03/19 04:31:54;;;;;;;13.53;13.03;;;;;;;;;;5013375;28;20409;-61
2022/03/19 04:34:20;;;;;;;17.37;16.57;;;;;;;;;;5013459;28;20447;-61
2022/03/19 04:36:46;;;;;;;15.25;14.65;;;;;;;;;;5013517;28;20407;-61
2022/03/19 04:39:12;;;;;;;16.67;15.97;;;;;;;;;;5013393;28;20507;-61
2022/03/19 04:41:38;;;;;;;17.77;16.87;;;;;;;;;;5013266;28;20409;-61
2022/03/19 04:44:05;;;;;;;26.13;24.52;;;;;;;;;;5013485;28;21014;-60
2022/03/19 04:46:31;;;;;;;25.58;23.95;;;;;;;;;;5013460;28;20181;-61
2022/03/19 04:48:57;;;;;;;23.00;21.60;;;;;;;;;;5013398;28;20639;-62
2022/03/19 04:51:28;;;;;;;27.17;25.57;;;;;;;;;;5013047;28;20516;-61
2022/03/19 04:53:54;;;;;;;25.83;24.17;;;;;;;;;;5013260;28;20560;-61
2022/03/19 04:56:23;;;;;;;30.23;28.00;;;;;;;;;;5013304;28;20255;-63
2022/03/19 04:58:50;;;;;;;30.60;28.45;;;;;;;;;;5013128;28;20485;-59
2022/03/19 05:01:15;;;;;;;28.65;26.73;;;;;;;;;;5012997;28;20232;-58
2022/03/19 05:03:41;;;;;;;19.53;18.53;;;;;;;;;;5012948;28;20219;-61
2022/03/19 05:06:07;;;;;;;19.27;18.33;;;;;;;;;;5013008;28;20911;-61
2022/03/19 05:08:33;;;;;;;20.00;19.00;;;;;;;;;;5013146;28;20915;-61
2022/03/19 05:11:16;;;;;;;17.13;16.33;;;;;;;;;;5012914;28;20452;-61
2022/03/19 05:13:44;;;;;;;15.00;14.40;;;;;;;;;;5012875;28;20188;-60
2022/03/19 05:16:10;;;;;;;25.83;24.25;;;;;;;;;;5012869;28;20175;-61
2022/03/19 05:18:37;;;;;;;21.90;20.63;;;;;;;;;;5012884;28;20166;-61
2022/03/19 05:21:03;;;;;;;26.58;24.88;;;;;;;;;;5012473;28;20598;-61
2022/03/19 05:23:29;;;;;;;26.52;24.77;;;;;;;;;;5012688;28;20524;-62
2022/03/19 05:25:55;;;;;;;30.93;28.63;;;;;;;;;;5012912;28;20176;-62
2022/03/19 05:28:21;;;;;;;30.83;28.58;;;;;;;;;;5012773;28;20944;-62
2022/03/19 05:30:48;;;;;;;24.83;23.25;;;;;;;;;;5012313;28;20201;-61
2022/03/19 05:33:15;;;;;;;23.60;22.08;;;;;;;;;;5012141;28;20198;-62
2022/03/19 05:35:41;;;;;;;27.60;25.80;;;;;;;;;;5012727;28;20166;-60
2022/03/19 05:38:07;;;;;;;28.15;26.13;;;;;;;;;;5012577;28;20570;-62
2022/03/19 05:40:33;;;;;;;35.58;32.63;;;;;;;;;;5012063;28;20690;-62
2022/03/19 05:42:59;;;;;;;7.17;6.87;;;;;;;;;;5012184;28;20171;-60
2022/03/19 05:45:25;;;;;;;7.37;7.17;;;;;;;;;;5012055;28;20983;-61
2022/03/19 05:47:51;;;;;;;11.35;10.95;;;;;;;;;;5011964;28;20935;-61
2022/03/19 05:50:18;;;;;;;33.90;31.42;;;;;;;;;;5011615;28;20224;-61
2022/03/19 05:52:45;;;;;;;28.90;26.88;;;;;;;;;;5011998;28;20519;-61
2022/03/19 05:55:11;;;;;;;32.92;30.55;;;;;;;;;;5012001;28;20186;-61
2022/03/19 05:57:37;;;;;;;35.88;33.00;;;;;;;;;;5012039;28;20181;-60
2022/03/19 06:00:05;;;;;;;27.15;25.38;;;;;;;;;;5011960;28;20213;-59
2022/03/19 06:02:31;;;;;;;28.13;26.45;;;;;;;;;;5011757;28;20177;-61
2022/03/19 06:04:57;;;;;;;30.98;28.85;;;;;;;;;;5011754;28;20213;-61
2022/03/19 06:07:23;;;;;;;28.53;26.63;;;;;;;;;;5011867;28;20167;-61
2022/03/19 06:09:49;;;;;;;30.77;28.53;;;;;;;;;;5011625;28;20450;-62
2022/03/19 06:12:15;;;;;;;37.37;34.23;;;;;;;;;;5011501;28;20406;-62
2022/03/19 06:14:41;;;;;;;29.30;27.33;;;;;;;;;;5011555;28;20836;-63
2022/03/19 06:17:07;;;;;;;38.13;34.78;;;;;;;;;;5011381;28;20432;-62
2022/03/19 06:19:33;;;;;;;39.15;35.78;;;;;;;;;;5011576;28;20533;-61
2022/03/19 06:21:59;;;;;;;41.53;37.93;;;;;;;;;;5011300;28;20185;-60
2022/03/19 06:24:24;;;;;;;41.47;37.97;;;;;;;;;;5011700;28;20432;-61
2022/03/19 06:26:51;;;;;;;39.30;36.00;;;;;;;;;;5011488;28;20174;-61
2022/03/19 06:29:17;;;;;;;38.70;35.60;;;;;;;;;;5011391;28;20398;-61
2022/03/19 06:31:43;;;;;;;37.83;34.85;;;;;;;;;;5011261;28;20410;-61
2022/03/19 06:34:09;;;;;;;37.53;34.67;;;;;;;;;;5010238;28;20205;-61
2022/03/19 06:39:19;;;;;;;41.88;38.30;;;;;;;;;;5011141;28;20470;-61
2022/03/19 06:41:45;;;;;;;39.50;36.07;;;;;;;;;;5010995;28;20179;-61
2022/03/19 06:44:11;;;;;;;39.50;36.20;;;;;;;;;;5010313;28;20528;-60
2022/03/19 06:46:38;;;;;;;42.80;39.10;;;;;;;;;;5010702;28;20413;-60
2022/03/19 06:49:04;;;;;;;35.50;32.85;;;;;;;;;;5010717;28;20201;-62
2022/03/19 06:51:30;;;;;;;13.57;13.02;;;;;;;;;;5010893;28;20208;-60
2022/03/19 06:53:56;;;;;;;12.53;12.03;;;;;;;;;;5010988;28;20195;-60
2022/03/19 06:56:22;;;;;;;16.77;16.05;;;;;;;;;;5011523;28;20508;-60
2022/03/19 06:58:48;;;;;;;12.05;11.60;;;;;;;;;;5011348;28;20263;-60
2022/03/19 07:01:17;;;;;;;13.05;12.55;;;;;;;;;;5010557;28;20622;-60
2022/03/19 07:03:44;;;;;;;27.85;26.10;;;;;;;;;;5010671;28;20195;-60
2022/03/19 07:06:10;;;;;;;17.52;16.73;;;;;;;;;;5011150;28;20646;-59
2022/03/19 07:08:36;;;;;;;13.70;13.20;;;;;;;;;;5010947;28;20179;-60
2022/03/19 07:11:02;;;;;;;14.13;13.53;;;;;;;;;;5010503;28;20201;-60
2022/03/19 07:13:28;;;;;;;14.18;13.65;;;;;;;;;;5010973;28;20431;-61
2022/03/19 07:15:54;;;;;;;10.87;10.47;;;;;;;;;;5011125;28;20173;-60
2022/03/19 07:18:20;;;;;;;12.63;12.13;;;;;;;;;;5011423;28;20414;-62
2022/03/19 07:20:46;;;;;;;15.20;14.60;;;;;;;;;;5010981;28;20411;-61
2022/03/19 07:23:12;;;;;;;18.77;17.93;;;;;;;;;;5011302;28;20415;-62
2022/03/19 07:25:39;;;;;;;17.92;17.15;;;;;;;;;;5010119;28;20452;-62
2022/03/19 07:28:12;;;;;;;18.75;17.95;;;;;;;;;;5011241;28;20184;-59
2022/03/19 07:30:38;;;;;;;19.85;18.95;;;;;;;;;;5010562;28;20298;-62
2022/03/19 07:33:04;;;;;;;22.88;21.73;;;;;;;;;;5010281;28;20204;-61
2022/03/19 07:35:31;;;;;;;29.35;27.48;;;;;;;;;;5010394;28;20175;-61
2022/03/19 07:38:01;;;;;;;42.67;39.38;;;;;;;;;;5009510;28;20612;-61
2022/03/19 07:43:12;;;;;;;45.35;41.75;;;;;;;;;;5010956;28;20180;-61
2022/03/19 07:45:39;;;;;;;44.97;41.35;;;;;;;;;;5012889;28;20194;-61
2022/03/19 07:48:06;;;;;;;43.42;39.95;;;;;;;;;;5014977;28;20181;-61
2022/03/19 07:50:33;;;;;;;38.22;35.67;;;;;;;;;;5019278;28;20195;-61
2022/03/19 07:52:59;;;;;;;42.83;39.85;;;;;;;;;;5023543;28;20264;-62
2022/03/19 07:55:25;;;;;;;44.65;41.25;;;;;;;;;;5031639;23;20593;-59
2022/03/19 07:57:51;;;;;;;51.20;47.00;;;;;;;;;;5032617;28;20180;-56
2022/03/19 08:00:17;;;;;;;55.15;50.92;;;;;;;;;;5032733;28;20188;-59
2022/03/19 08:02:44;;;;;;;56.78;51.75;;;;;;;;;;5033002;28;20183;-59
2022/03/19 08:05:10;;;;;;;56.03;51.35;;;;;;;;;;5030302;28;20198;-54
2022/03/19 08:07:37;;;;;;;60.95;55.53;;;;;;;;;;5024797;28;20190;-55
2022/03/19 08:10:06;;;;;;;65.05;59.08;;;;;;;;;;5021297;28;20198;-57
2022/03/19 08:12:33;;;;;;;67.05;61.15;;;;;;;;;;5022029;28;20192;-58
2022/03/19 08:14:59;;;;;;;64.03;58.67;;;;;;;;;;5001630;28;20194;-60
2022/03/19 08:17:26;;;;;;;63.33;57.22;;;;;;;;;;5014401;28;20165;-59
2022/03/19 08:19:52;;;;;;;64.25;58.60;;;;;;;;;;5017437;28;20197;-60
2022/03/19 08:22:18;;;;;;;73.43;66.35;;;;;;;;;;5019180;28;20248;-60
2022/03/19 08:24:46;;;;;;;60.30;55.28;;;;;;;;;;5022403;28;20187;-59
2022/03/19 08:27:12;;;;;;;58.28;53.45;;;;;;;;;;5019330;28;20197;-58
2022/03/19 08:29:38;;;;;;;61.00;56.27;;;;;;;;;;5023037;28;20850;-59
2022/03/19 08:32:04;;;;;;;61.60;56.95;;;;;;;;;;5023432;28;20416;-59
2022/03/19 08:34:30;;;;;;;62.63;57.80;;;;;;;;;;5021550;28;20173;-58
2022/03/19 08:36:56;;;;;;;61.75;56.95;;;;;;;;;;5018163;28;20197;-58
2022/03/19 08:42:07;;;;;;;84.03;76.85;;;;;;;;;;5023829;28;20183;-59
2022/03/19 08:44:33;;;;;;;67.88;62.95;;;;;;;;;;5020150;28;20173;-56
2022/03/19 08:46:59;;;;;;;83.23;76.53;;;;;;;;;;5022138;28;20823;-60
2022/03/19 08:49:25;;;;;;;91.43;83.68;;;;;;;;;;5021571;28;20503;-60
2022/03/19 08:51:51;;;;;;;100.03;91.23;;;;;;;;;;5021325;28;20261;-60
2022/03/19 08:54:19;;;;;;;96.00;88.20;;;;;;;;;;5024007;28;21014;-58
2022/03/19 08:56:46;;;;;;;88.28;81.75;;;;;;;;;;5012346;28;20677;-60
2022/03/19 08:59:13;;;;;;;117.22;107.28;;;;;;;;;;5013901;28;20170;-59
2022/03/19 09:01:39;;;;;;;125.57;116.22;;;;;;;;;;5013759;28;20170;-58
2022/03/19 09:04:06;;;;;;;136.67;127.27;;;;;;;;;;5013756;28;20187;-58
2022/03/19 09:06:32;;;;;;;162.47;150.40;;;;;;;;;;5013663;28;20840;-60
2022/03/19 09:09:00;;;;;;;166.87;156.77;;;;;;;;;;5013840;28;20827;-60
2022/03/19 09:11:26;;;;;;;135.57;129.27;;;;;;;;;;5013526;28;20538;-59
2022/03/19 09:13:53;;;;;;;115.93;110.93;;;;;;;;;;5015546;28;20423;-60
2022/03/19 09:16:20;;;;;;;121.40;116.47;;;;;;;;;;5022559;28;20439;-60
2022/03/19 09:18:46;;;;;;;139.73;134.03;;;;;;;;;;5022188;28;20777;-60
2022/03/19 09:21:12;;;;;;;142.13;136.70;;;;;;;;;;5013506;28;20409;-61
2022/03/19 09:23:38;;;;;;;129.33;124.57;;;;;;;;;;5013751;28;20780;-61
2022/03/19 09:26:04;;;;;;;176.93;170.43;;;;;;;;;;5013713;28;20428;-60
2022/03/19 09:28:29;;;;;;;185.40;178.60;;;;;;;;;;5013121;28;20408;-57
2022/03/19 09:30:56;;;;;;;96.33;93.13;;;;;;;;;;5014213;28;20953;-58
2022/03/19 09:33:22;;;;;;;170.97;164.93;;;;;;;;;;5012848;28;20421;-60
2022/03/19 09:35:48;;;;;;;190.37;183.57;;;;;;;;;;5010690;28;20463;-59
2022/03/19 09:38:14;;;;;;;236.00;227.60;;;;;;;;;;5017180;28;20424;-61
2022/03/19 09:40:41;;;;;;;194.93;188.30;;;;;;;;;;5010423;28;20396;-60
2022/03/19 09:43:08;;;;;;;189.53;183.37;;;;;;;;;;5014734;28;20413;-59
2022/03/19 09:45:35;;;;;;;234.93;227.30;;;;;;;;;;5020853;28;20438;-58
2022/03/19 09:48:02;;;;;;;212.67;205.80;;;;;;;;;;5019872;28;20506;-58
2022/03/19 09:50:28;;;;;;;197.57;191.20;;;;;;;;;;5016851;28;20493;-59
2022/03/19 09:52:55;;;;;;;246.70;238.50;;;;;;;;;;5015461;28;20516;-58
2022/03/19 09:55:26;;;;;;;266.27;257.07;;;;;;;;;;5018479;28;20421;-61
2022/03/19 09:57:52;;;;;;;216.03;208.90;;;;;;;;;;5015428;28;20446;-56
2022/03/19 10:00:22;;;;;;;138.43;133.83;;;;;;;;;;5013969;28;20395;-61
2022/03/19 10:02:51;;;;;;;112.73;109.13;;;;;;;;;;5021323;28;20414;-57
2022/03/19 10:10:48;;;;;;;46.63;45.23;;;;;;;;;;5011720;28;20465;-52
2022/03/19 10:13:14;;;;;;;77.77;75.47;;;;;;;;;;5011717;28;20857;-58
2022/03/19 10:15:44;;;;;;;102.00;99.00;;;;;;;;;;5012434;28;20431;-59
2022/03/19 10:18:10;;;;;;;61.87;59.87;;;;;;;;;;5011556;28;20486;-58
2022/03/19 10:20:37;;;;;;;54.60;52.80;;;;;;;;;;5009332;28;20874;-59
2022/03/19 10:23:04;;;;;;;57.13;55.47;;;;;;;;;;5012243;28;20436;-59
2022/03/19 10:25:30;;;;;;;13.27;12.90;;;;;;;;;;5012134;28;20429;-59
2022/03/19 10:28:00;;;;;;;13.57;13.27;;;;;;;;;;5012399;28;20408;-59
2022/03/19 10:30:28;;;;;;;30.67;29.83;;;;;;;;;;5011573;28;20553;-61
2022/03/19 10:32:56;;;;;;;7.77;7.57;;;;;;;;;;5012038;28;20491;-60
2022/03/19 10:35:32;;;;;;;11.70;11.40;;;;;;;;;;5012206;28;20432;-61
2022/03/19 10:37:59;;;;;;;5.50;5.40;;;;;;;;;;5012413;28;20471;-60
2022/03/19 10:40:41;;;;;;;4.60;4.50;;;;;;;;;;5012098;28;20956;-60
2022/03/19 10:43:08;;;;;;;7.97;7.83;;;;;;;;;;5012375;28;20422;-60
2022/03/19 10:45:34;;;;;;;4.10;4.00;;;;;;;;;;5011601;28;20428;-60
2022/03/19 10:48:02;;;;;;;5.93;5.83;;;;;;;;;;5012748;28;20446;-60
2022/03/19 10:50:28;;;;;;;2.03;2.03;;;;;;;;;;5012948;28;20491;-58
2022/03/19 10:52:54;;;;;;;1.33;1.33;;;;;;;;;;5012498;28;20780;-60
2022/03/19 10:55:21;;;;;;;1.33;1.33;;;;;;;;;;5011896;28;20433;-58
2022/03/19 10:57:47;;;;;;;1.73;1.73;;;;;;;;;;5012207;28;20855;-60
2022/03/19 11:00:13;;;;;;;3.23;3.13;;;;;;;;;;5011632;28;20422;-60
2022/03/19 11:02:43;;;;;;;4.53;4.43;;;;;;;;;;5012266;28;20405;-60
2022/03/19 11:05:11;;;;;;;1.43;1.43;;;;;;;;;;5011696;28;20448;-60
2022/03/19 11:07:37;;;;;;;1.77;1.77;;;;;;;;;;5011368;28;20448;-58
2022/03/19 11:10:07;;;;;;;2.70;2.60;;;;;;;;;;5010071;28;20459;-57
2022/03/19 11:12:35;;;;;;;2.80;2.80;;;;;;;;;;5011274;28;20428;-60
2022/03/19 11:15:03;;;;;;;3.07;2.97;;;;;;;;;;5011313;28;20418;-60
2022/03/19 11:17:33;;;;;;;2.00;2.00;;;;;;;;;;5011597;28;20395;-59
2022/03/19 11:20:06;;;;;;;2.37;2.37;;;;;;;;;;5012688;28;20424;-60
2022/03/19 11:22:39;;;;;;;1.80;1.80;;;;;;;;;;5015601;28;20411;-60
2022/03/19 11:25:06;;;;;;;3.07;2.97;;;;;;;;;;5015101;28;20419;-61
2022/03/19 11:27:35;;;;;;;2.13;2.13;;;;;;;;;;5014968;28;20435;-59
2022/03/19 11:30:01;;;;;;;1.23;1.23;;;;;;;;;;5015277;28;20454;-59
2022/03/19 11:32:27;;;;;;;0.90;0.90;;;;;;;;;;5014945;28;20940;-60
2022/03/19 11:34:59;;;;;;;1.40;1.40;;;;;;;;;;5015576;28;20423;-59
2022/03/19 11:37:26;;;;;;;1.43;1.43;;;;;;;;;;5007251;28;20418;-60
2022/03/19 11:40:03;;;;;;;0.93;0.93;;;;;;;;;;5015101;28;20550;-56
2022/03/19 11:42:30;;;;;;;1.10;1.10;;;;;;;;;;5008318;28;20556;-57
2022/03/19 11:44:56;;;;;;;0.93;0.93;;;;;;;;;;5015346;28;20406;-60
2022/03/19 11:47:31;;;;;;;0.97;0.97;;;;;;;;;;5015419;28;20413;-60
2022/03/19 11:50:04;;;;;;;1.47;1.47;;;;;;;;;;5015484;28;20485;-59
2022/03/19 11:52:29;;;;;;;1.53;1.53;;;;;;;;;;5015309;28;20428;-58
2022/03/19 11:55:04;;;;;;;1.67;1.67;;;;;;;;;;5015111;28;20478;-58
2022/03/19 11:57:46;;;;;;;1.23;1.23;;;;;;;;;;5015327;28;20745;-59
2022/03/19 12:00:22;;;;;;;2.53;2.43;;;;;;;;;;5015623;28;20413;-59
2022/03/19 12:03:07;;;;;;;1.03;1.03;;;;;;;;;;5015172;28;21059;-59
2022/03/19 12:05:34;;;;;;;0.80;0.80;;;;;;;;;;5015393;28;20432;-59
2022/03/19 12:08:10;;;;;;;0.90;0.90;;;;;;;;;;5015010;28;20419;-57
2022/03/19 12:10:54;;;;;;;1.20;1.20;;;;;;;;;;5014508;28;20555;-59
2022/03/19 12:13:29;;;;;;;0.73;0.73;;;;;;;;;;5014842;28;20807;-57
2022/03/19 12:15:56;;;;;;;0.90;0.90;;;;;;;;;;5014657;28;20419;-60
2022/03/19 12:18:22;;;;;;;1.10;1.10;;;;;;;;;;5014680;28;20916;-59
2022/03/19 12:20:48;;;;;;;1.47;1.47;;;;;;;;;;5014389;28;20405;-59
2022/03/19 12:23:14;;;;;;;1.30;1.30;;;;;;;;;;5014499;28;20423;-58
2022/03/19 12:25:42;;;;;;;1.10;1.10;;;;;;;;;;5014428;28;20436;-58
2022/03/19 12:28:08;;;;;;;0.73;0.73;;;;;;;;;;5014518;28;20881;-59
2022/03/19 12:30:35;;;;;;;1.07;1.07;;;;;;;;;;5014144;28;20459;-58
2022/03/19 12:33:01;;;;;;;1.70;1.70;;;;;;;;;;5013203;28;20423;-58
2022/03/19 12:35:38;;;;;;;5.33;5.23;;;;;;;;;;5014331;28;20429;-58
2022/03/19 12:38:04;;;;;;;4.20;4.10;;;;;;;;;;5014001;28;20405;-59
2022/03/19 12:41:23;;;;;;;2.20;2.20;;;;;;;;;;5013911;28;20177;-58
2022/03/19 12:43:17;;;;;;;6.70;6.60;;;;;;;;;;5014016;28;20424;-59
2022/03/19 12:45:48;;;;;;;13.27;12.97;;;;;;;;;;5014056;28;21078;-59
2022/03/19 12:48:20;;;;;;;13.40;13.10;;;;;;;;;;5014041;28;20466;-60
2022/03/19 12:50:49;;;;;;;27.10;26.30;;;;;;;;;;5013748;28;20545;-59
2022/03/19 12:53:15;;;;;;;21.27;20.67;;;;;;;;;;5013809;28;20408;-60
2022/03/19 12:55:41;;;;;;;19.77;19.17;;;;;;;;;;5013679;28;20450;-59
2022/03/19 12:58:07;;;;;;;29.40;28.40;;;;;;;;;;5013831;28;20468;-60
2022/03/19 13:00:33;;;;;;;14.10;13.70;;;;;;;;;;5013301;28;20496;-59
2022/03/19 13:02:59;;;;;;;1.20;1.20;;;;;;;;;;5013652;28;20408;-62
2022/03/19 13:05:25;;;;;;;1.17;1.17;;;;;;;;;;5013818;28;20455;-62
2022/03/19 13:08:04;;;;;;;0.88;0.88;;;;;;;;;;5013782;28;20417;-61
2022/03/19 13:10:40;;;;;;;1.73;1.73;;;;;;;;;;5013735;28;20199;-61
2022/03/19 13:13:07;;;;;;;3.53;3.42;;;;;;;;;;5013691;28;20585;-59
2022/03/19 13:15:33;;;;;;;3.87;3.77;;;;;;;;;;5013425;28;20285;-59
2022/03/19 13:17:59;;;;;;;4.40;4.30;;;;;;;;;;5013522;28;20970;-59
2022/03/19 13:20:25;;;;;;;4.25;4.15;;;;;;;;;;5013309;28;20775;-59
2022/03/19 13:22:57;;;;;;;3.90;3.80;;;;;;;;;;5013429;28;20190;-59
2022/03/19 13:25:25;;;;;;;3.47;3.37;;;;;;;;;;5013375;28;20468;-60
2022/03/19 13:27:51;;;;;;;3.50;3.40;;;;;;;;;;5013331;28;20486;-59
2022/03/19 13:30:17;;;;;;;9.60;9.23;;;;;;;;;;5012850;28;20537;-59
2022/03/19 13:32:44;;;;;;;19.20;18.70;;;;;;;;;;5013282;28;20637;-59
2022/03/19 13:35:10;;;;;;;24.47;23.67;;;;;;;;;;5013150;28;20433;-59
2022/03/19 13:37:40;;;;;;;31.15;30.05;;;;;;;;;;5013336;28;20425;-58
2022/03/19 13:40:07;;;;;;;32.87;31.67;;;;;;;;;;5017727;28;20184;-60
2022/03/19 13:42:34;;;;;;;12.07;11.67;;;;;;;;;;5032312;28;20433;-59
2022/03/19 13:45:02;;;;;;;6.37;6.27;;;;;;;;;;5032637;28;20437;-59
2022/03/19 13:47:35;;;;;;;9.33;9.13;;;;;;;;;;4998001;28;20431;-59
2022/03/19 13:50:02;;;;;;;15.80;15.30;;;;;;;;;;4993347;28;20517;-59
2022/03/19 13:52:28;;;;;;;19.58;18.98;;;;;;;;;;4993080;28;20415;-59
2022/03/19 13:54:57;;;;;;;28.90;27.90;;;;;;;;;;4993602;28;20200;-59
2022/03/19 13:57:22;;;;;;;31.17;30.03;;;;;;;;;;5032491;22;20527;-63
2022/03/19 13:59:48;;;;;;;38.80;37.40;;;;;;;;;;5012558;28;20411;-63
2022/03/19 14:02:14;;;;;;;13.60;13.30;;;;;;;;;;5012387;28;20811;-63
2022/03/19 14:04:40;;;;;;;13.30;12.97;;;;;;;;;;5012743;28;20406;-63
2022/03/19 14:07:07;;;;;;;25.40;24.60;;;;;;;;;;5012720;28;20424;-63
2022/03/19 14:09:33;;;;;;;36.55;35.05;;;;;;;;;;5012588;28;20853;-63
2022/03/19 14:12:00;;;;;;;31.00;29.90;;;;;;;;;;5012273;28;20312;-63
2022/03/19 14:14:28;;;;;;;40.90;39.17;;;;;;;;;;5012272;28;20185;-63
2022/03/19 14:16:58;;;;;;;33.53;32.22;;;;;;;;;;5012117;28;20210;-63
2022/03/19 14:19:24;;;;;;;49.25;46.95;;;;;;;;;;5012635;28;20173;-63
2022/03/19 14:21:50;;;;;;;16.88;16.38;;;;;;;;;;5012166;28;20257;-63
2022/03/19 14:24:16;;;;;;;38.90;37.30;;;;;;;;;;5012555;28;20216;-63
2022/03/19 14:26:44;;;;;;;30.92;29.73;;;;;;;;;;5012217;28;20432;-63
2022/03/19 14:29:10;;;;;;;39.65;37.90;;;;;;;;;;5012203;28;20195;-63
2022/03/19 14:31:36;;;;;;;36.45;34.95;;;;;;;;;;5011969;28;20715;-63
2022/03/19 14:34:02;;;;;;;33.07;31.77;;;;;;;;;;5012237;28;20201;-63
2022/03/19 14:36:28;;;;;;;41.67;39.77;;;;;;;;;;5012184;28;20421;-63